Terminal Aerodrome Forecast
Issued by NWS

Home | Current Version | Previous Version | Text Only | Print | Product List | Glossary On
Versions: 1 2 3 4 5 6 7 8 9 10 11 12
030
FTUS41 KLWX 082332
TAFMTN
TAF
KMTN 082332Z 0900/0924 11008KT P6SM -RA OVC040
     FM090100 11008KT 6SM -SNRA OVC035
     FM090300 10009KT 3SM -SNRA OVC020
     FM090500 09008KT 1SM -SNRA OVC008
     FM090600 09008KT 1/2SM SN OVC008
     FM091800 01006KT 1SM -SN OVC008
     FM092300 32004KT 1 1/2SM -SN OVC008
      AMD NOT SKED 0902/0912=

USA.gov is the U.S. government's official web portal to all federal, state and local government web resources and services.